sensor_id;sensor_type;location;lat;lon;timestamp;P1;durP1;ratioP1;P2;durP2;ratioP2
3379;SDS011;1703;51.964;7.642;2023-05-15T00:01:12;8.87;;;8.07;;
3379;SDS011;1703;51.964;7.642;2023-05-15T00:03:39;9.77;;;8.77;;
3379;SDS011;1703;51.964;7.642;2023-05-15T00:06:06;10.40;;;9.50;;
3379;SDS011;1703;51.964;7.642;2023-05-15T00:08:32;11.23;;;9.73;;
3379;SDS011;1703;51.964;7.642;2023-05-15T00:10:59;10.03;;;8.43;;
3379;SDS011;1703;51.964;7.642;2023-05-15T00:13:27;10.60;;;9.03;;
3379;SDS011;1703;51.964;7.642;2023-05-15T00:15:54;9.70;;;8.70;;
3379;SDS011;1703;51.964;7.642;2023-05-15T00:18:21;8.30;;;7.60;;
3379;SDS011;1703;51.964;7.642;2023-05-15T00:20:48;10.13;;;8.93;;
3379;SDS011;1703;51.964;7.642;2023-05-15T00:23:15;13.70;;;9.10;;
3379;SDS011;1703;51.964;7.642;2023-05-15T00:25:41;8.20;;;7.43;;
3379;SDS011;1703;51.964;7.642;2023-05-15T00:28:08;16.47;;;10.40;;
3379;SDS011;1703;51.964;7.642;2023-05-15T00:30:36;9.53;;;8.17;;
3379;SDS011;1703;51.964;7.642;2023-05-15T00:33:04;10.07;;;9.00;;
3379;SDS011;1703;51.964;7.642;2023-05-15T00:35:31;12.13;;;9.47;;
3379;SDS011;1703;51.964;7.642;2023-05-15T00:37:58;9.63;;;8.83;;
3379;SDS011;1703;51.964;7.642;2023-05-15T00:40:25;9.77;;;8.87;;
3379;SDS011;1703;51.964;7.642;2023-05-15T00:42:53;16.30;;;9.30;;
3379;SDS011;1703;51.964;7.642;2023-05-15T00:45:22;8.90;;;8.10;;
3379;SDS011;1703;51.964;7.642;2023-05-15T00:47:52;9.83;;;8.97;;
3379;SDS011;1703;51.964;7.642;2023-05-15T00:50:21;11.30;;;8.97;;
3379;SDS011;1703;51.964;7.642;2023-05-15T00:52:48;10.47;;;9.57;;
3379;SDS011;1703;51.964;7.642;2023-05-15T00:55:16;10.93;;;9.80;;
3379;SDS011;1703;51.964;7.642;2023-05-15T00:57:43;9.80;;;8.80;;
3379;SDS011;1703;51.964;7.642;2023-05-15T01:00:11;10.10;;;9.17;;
3379;SDS011;1703;51.964;7.642;2023-05-15T01:02:42;10.50;;;9.50;;
3379;SDS011;1703;51.964;7.642;2023-05-15T01:05:11;12.60;;;9.77;;
3379;SDS011;1703;51.964;7.642;2023-05-15T01:07:39;10.87;;;9.87;;
3379;SDS011;1703;51.964;7.642;2023-05-15T01:10:14;11.47;;;10.47;;
3379;SDS011;1703;51.964;7.642;2023-05-15T01:12:41;11.97;;;10.73;;
3379;SDS011;1703;51.964;7.642;2023-05-15T01:15:11;13.47;;;10.77;;
3379;SDS011;1703;51.964;7.642;2023-05-15T01:17:38;10.47;;;9.40;;
3379;SDS011;1703;51.964;7.642;2023-05-15T01:20:05;10.83;;;9.83;;
3379;SDS011;1703;51.964;7.642;2023-05-15T01:25:36;12.13;;;10.90;;
3379;SDS011;1703;51.964;7.642;2023-05-15T01:28:22;10.93;;;9.93;;
3379;SDS011;1703;51.964;7.642;2023-05-15T01:30:53;10.27;;;9.33;;
3379;SDS011;1703;51.964;7.642;2023-05-15T01:33:23;11.63;;;10.50;;
3379;SDS011;1703;51.964;7.642;2023-05-15T01:35:54;11.90;;;9.83;;
3379;SDS011;1703;51.964;7.642;2023-05-15T01:38:26;11.83;;;10.73;;
3379;SDS011;1703;51.964;7.642;2023-05-15T01:40:58;12.23;;;10.93;;
3379;SDS011;1703;51.964;7.642;2023-05-15T01:43:31;11.53;;;10.33;;
3379;SDS011;1703;51.964;7.642;2023-05-15T01:46:00;10.33;;;9.23;;
3379;SDS011;1703;51.964;7.642;2023-05-15T01:48:28;14.30;;;11.13;;
3379;SDS011;1703;51.964;7.642;2023-05-15T01:50:59;12.60;;;10.70;;
3379;SDS011;1703;51.964;7.642;2023-05-15T01:53:29;12.20;;;10.90;;
3379;SDS011;1703;51.964;7.642;2023-05-15T01:55:57;13.80;;;12.40;;
3379;SDS011;1703;51.964;7.642;2023-05-15T01:58:25;10.87;;;9.97;;
3379;SDS011;1703;51.964;7.642;2023-05-15T02:00:54;14.63;;;11.00;;
3379;SDS011;1703;51.964;7.642;2023-05-15T02:03:22;15.20;;;11.27;;
3379;SDS011;1703;51.964;7.642;2023-05-15T02:05:49;16.40;;;12.23;;
3379;SDS011;1703;51.964;7.642;2023-05-15T02:08:17;12.77;;;11.47;;
3379;SDS011;1703;51.964;7.642;2023-05-15T02:10:46;12.57;;;11.43;;
3379;SDS011;1703;51.964;7.642;2023-05-15T02:13:13;13.47;;;12.07;;
3379;SDS011;1703;51.964;7.642;2023-05-15T02:15:41;14.13;;;12.63;;
3379;SDS011;1703;51.964;7.642;2023-05-15T02:18:09;14.07;;;12.43;;
3379;SDS011;1703;51.964;7.642;2023-05-15T02:20:36;15.47;;;14.03;;
3379;SDS011;1703;51.964;7.642;2023-05-15T02:23:03;14.67;;;13.27;;
3379;SDS011;1703;51.964;7.642;2023-05-15T02:25:31;20.60;;;13.30;;
3379;SDS011;1703;51.964;7.642;2023-05-15T02:28:04;17.37;;;15.30;;
3379;SDS011;1703;51.964;7.642;2023-05-15T02:30:37;15.87;;;14.17;;
3379;SDS011;1703;51.964;7.642;2023-05-15T02:33:13;17.40;;;14.70;;
3379;SDS011;1703;51.964;7.642;2023-05-15T02:35:47;17.20;;;15.37;;
3379;SDS011;1703;51.964;7.642;2023-05-15T02:38:18;19.30;;;15.33;;
3379;SDS011;1703;51.964;7.642;2023-05-15T02:40:58;19.23;;;16.40;;
3379;SDS011;1703;51.964;7.642;2023-05-15T02:43:26;19.90;;;17.90;;
3379;SDS011;1703;51.964;7.642;2023-05-15T02:45:54;22.20;;;18.20;;
3379;SDS011;1703;51.964;7.642;2023-05-15T02:48:23;29.30;;;19.70;;
3379;SDS011;1703;51.964;7.642;2023-05-15T02:50:51;27.63;;;20.50;;
3379;SDS011;1703;51.964;7.642;2023-05-15T02:53:18;20.50;;;18.30;;
3379;SDS011;1703;51.964;7.642;2023-05-15T02:55:45;26.77;;;19.10;;
3379;SDS011;1703;51.964;7.642;2023-05-15T02:58:12;24.70;;;21.30;;
3379;SDS011;1703;51.964;7.642;2023-05-15T03:00:39;23.30;;;19.60;;
3379;SDS011;1703;51.964;7.642;2023-05-15T03:03:06;27.97;;;22.80;;
3379;SDS011;1703;51.964;7.642;2023-05-15T03:05:34;31.73;;;22.07;;
3379;SDS011;1703;51.964;7.642;2023-05-15T03:08:00;28.83;;;23.00;;
3379;SDS011;1703;51.964;7.642;2023-05-15T03:10:27;25.20;;;21.33;;
3379;SDS011;1703;51.964;7.642;2023-05-15T03:12:54;33.07;;;23.90;;
3379;SDS011;1703;51.964;7.642;2023-05-15T03:15:23;31.00;;;25.20;;
3379;SDS011;1703;51.964;7.642;2023-05-15T03:17:49;28.70;;;23.13;;
3379;SDS011;1703;51.964;7.642;2023-05-15T03:20:16;30.90;;;23.73;;
3379;SDS011;1703;51.964;7.642;2023-05-15T03:22:44;28.87;;;25.50;;
3379;SDS011;1703;51.964;7.642;2023-05-15T03:25:11;33.50;;;26.67;;
3379;SDS011;1703;51.964;7.642;2023-05-15T03:27:38;34.13;;;26.80;;
3379;SDS011;1703;51.964;7.642;2023-05-15T03:30:05;40.47;;;27.67;;
3379;SDS011;1703;51.964;7.642;2023-05-15T03:32:33;35.87;;;27.30;;
3379;SDS011;1703;51.964;7.642;2023-05-15T03:35:00;41.03;;;28.53;;
3379;SDS011;1703;51.964;7.642;2023-05-15T03:37:27;42.83;;;31.80;;
3379;SDS011;1703;51.964;7.642;2023-05-15T03:39:55;42.67;;;29.73;;
3379;SDS011;1703;51.964;7.642;2023-05-15T03:42:22;40.97;;;29.87;;
3379;SDS011;1703;51.964;7.642;2023-05-15T03:44:49;49.27;;;31.40;;
3379;SDS011;1703;51.964;7.642;2023-05-15T03:47:16;40.77;;;33.53;;
3379;SDS011;1703;51.964;7.642;2023-05-15T03:49:44;46.23;;;33.60;;
3379;SDS011;1703;51.964;7.642;2023-05-15T03:52:11;48.00;;;33.07;;
3379;SDS011;1703;51.964;7.642;2023-05-15T03:54:38;41.90;;;32.23;;
3379;SDS011;1703;51.964;7.642;2023-05-15T03:57:06;45.60;;;32.60;;
3379;SDS011;1703;51.964;7.642;2023-05-15T03:59:33;45.60;;;34.53;;
3379;SDS011;1703;51.964;7.642;2023-05-15T04:02:00;45.47;;;35.30;;
3379;SDS011;1703;51.964;7.642;2023-05-15T04:04:26;41.67;;;33.67;;
3379;SDS011;1703;51.964;7.642;2023-05-15T04:06:53;45.60;;;35.37;;
3379;SDS011;1703;51.964;7.642;2023-05-15T04:09:20;48.33;;;35.07;;
3379;SDS011;1703;51.964;7.642;2023-05-15T04:11:47;46.47;;;35.60;;
3379;SDS011;1703;51.964;7.642;2023-05-15T04:14:15;49.27;;;36.93;;
3379;SDS011;1703;51.964;7.642;2023-05-15T04:16:41;50.57;;;36.27;;
3379;SDS011;1703;51.964;7.642;2023-05-15T04:19:08;41.80;;;32.53;;
3379;SDS011;1703;51.964;7.642;2023-05-15T04:21:35;48.97;;;35.37;;
3379;SDS011;1703;51.964;7.642;2023-05-15T04:24:02;47.23;;;36.53;;
3379;SDS011;1703;51.964;7.642;2023-05-15T04:26:29;52.77;;;36.33;;
3379;SDS011;1703;51.964;7.642;2023-05-15T04:28:55;54.50;;;36.77;;
3379;SDS011;1703;51.964;7.642;2023-05-15T04:31:23;53.67;;;38.47;;
3379;SDS011;1703;51.964;7.642;2023-05-15T04:33:51;52.57;;;35.40;;
3379;SDS011;1703;51.964;7.642;2023-05-15T04:36:17;49.23;;;34.33;;
3379;SDS011;1703;51.964;7.642;2023-05-15T04:38:45;54.13;;;38.17;;
3379;SDS011;1703;51.964;7.642;2023-05-15T04:41:11;55.33;;;37.93;;
3379;SDS011;1703;51.964;7.642;2023-05-15T04:43:38;57.43;;;39.90;;
3379;SDS011;1703;51.964;7.642;2023-05-15T04:46:05;57.40;;;39.40;;
3379;SDS011;1703;51.964;7.642;2023-05-15T04:48:33;55.43;;;38.90;;
3379;SDS011;1703;51.964;7.642;2023-05-15T04:50:59;52.60;;;37.37;;
3379;SDS011;1703;51.964;7.642;2023-05-15T04:53:26;56.87;;;42.47;;
3379;SDS011;1703;51.964;7.642;2023-05-15T04:55:53;51.87;;;37.60;;
3379;SDS011;1703;51.964;7.642;2023-05-15T04:58:20;49.40;;;37.40;;
3379;SDS011;1703;51.964;7.642;2023-05-15T05:00:47;56.77;;;40.90;;
3379;SDS011;1703;51.964;7.642;2023-05-15T05:03:13;58.33;;;38.73;;
3379;SDS011;1703;51.964;7.642;2023-05-15T05:05:41;61.10;;;39.80;;
3379;SDS011;1703;51.964;7.642;2023-05-15T05:08:08;55.20;;;38.80;;
3379;SDS011;1703;51.964;7.642;2023-05-15T05:10:35;54.47;;;38.27;;
3379;SDS011;1703;51.964;7.642;2023-05-15T05:13:02;62.00;;;39.60;;
3379;SDS011;1703;51.964;7.642;2023-05-15T05:15:29;54.70;;;36.57;;
3379;SDS011;1703;51.964;7.642;2023-05-15T05:17:55;56.53;;;37.80;;
3379;SDS011;1703;51.964;7.642;2023-05-15T05:20:22;55.53;;;37.90;;
3379;SDS011;1703;51.964;7.642;2023-05-15T05:22:50;63.33;;;41.30;;
3379;SDS011;1703;51.964;7.642;2023-05-15T05:25:17;62.50;;;40.30;;
3379;SDS011;1703;51.964;7.642;2023-05-15T05:27:44;57.47;;;37.77;;
3379;SDS011;1703;51.964;7.642;2023-05-15T05:30:11;66.57;;;38.40;;
3379;SDS011;1703;51.964;7.642;2023-05-15T05:32:39;59.90;;;40.37;;
3379;SDS011;1703;51.964;7.642;2023-05-15T05:35:06;51.60;;;35.13;;
3379;SDS011;1703;51.964;7.642;2023-05-15T05:37:33;51.97;;;35.57;;
3379;SDS011;1703;51.964;7.642;2023-05-15T05:40:01;54.67;;;38.67;;
3379;SDS011;1703;51.964;7.642;2023-05-15T05:42:29;45.83;;;32.77;;
3379;SDS011;1703;51.964;7.642;2023-05-15T05:44:56;52.03;;;36.30;;
3379;SDS011;1703;51.964;7.642;2023-05-15T05:47:23;45.67;;;32.67;;
3379;SDS011;1703;51.964;7.642;2023-05-15T05:49:50;51.60;;;35.13;;
3379;SDS011;1703;51.964;7.642;2023-05-15T05:52:19;48.03;;;34.80;;
3379;SDS011;1703;51.964;7.642;2023-05-15T05:54:45;51.27;;;34.57;;
3379;SDS011;1703;51.964;7.642;2023-05-15T05:57:13;49.17;;;35.10;;
3379;SDS011;1703;51.964;7.642;2023-05-15T05:59:40;53.83;;;37.17;;
3379;SDS011;1703;51.964;7.642;2023-05-15T06:02:07;58.90;;;37.90;;
3379;SDS011;1703;51.964;7.642;2023-05-15T06:04:34;60.60;;;37.07;;
3379;SDS011;1703;51.964;7.642;2023-05-15T06:07:01;54.13;;;37.07;;
3379;SDS011;1703;51.964;7.642;2023-05-15T06:09:28;54.50;;;37.20;;
3379;SDS011;1703;51.964;7.642;2023-05-15T06:11:54;51.93;;;34.57;;
3379;SDS011;1703;51.964;7.642;2023-05-15T06:14:23;68.23;;;36.57;;
3379;SDS011;1703;51.964;7.642;2023-05-15T06:16:49;50.00;;;33.80;;
3379;SDS011;1703;51.964;7.642;2023-05-15T06:19:17;46.40;;;33.20;;
3379;SDS011;1703;51.964;7.642;2023-05-15T06:21:45;49.90;;;36.03;;
3379;SDS011;1703;51.964;7.642;2023-05-15T06:24:12;52.00;;;34.70;;
3379;SDS011;1703;51.964;7.642;2023-05-15T06:26:39;49.70;;;33.33;;
3379;SDS011;1703;51.964;7.642;2023-05-15T06:29:06;49.53;;;34.10;;
3379;SDS011;1703;51.964;7.642;2023-05-15T06:31:34;49.97;;;33.60;;
3379;SDS011;1703;51.964;7.642;2023-05-15T06:34:01;50.80;;;34.70;;
3379;SDS011;1703;51.964;7.642;2023-05-15T06:36:27;48.90;;;34.50;;
3379;SDS011;1703;51.964;7.642;2023-05-15T06:38:55;43.27;;;31.40;;
3379;SDS011;1703;51.964;7.642;2023-05-15T06:41:21;45.87;;;31.03;;
3379;SDS011;1703;51.964;7.642;2023-05-15T06:43:48;48.60;;;32.40;;
3379;SDS011;1703;51.964;7.642;2023-05-15T06:46:15;49.17;;;32.50;;
3379;SDS011;1703;51.964;7.642;2023-05-15T06:48:44;55.17;;;33.90;;
3379;SDS011;1703;51.964;7.642;2023-05-15T06:51:11;47.03;;;32.63;;
3379;SDS011;1703;51.964;7.642;2023-05-15T06:53:39;52.23;;;32.27;;
3379;SDS011;1703;51.964;7.642;2023-05-15T06:56:06;48.93;;;31.57;;
3379;SDS011;1703;51.964;7.642;2023-05-15T06:58:33;42.17;;;31.70;;
3379;SDS011;1703;51.964;7.642;2023-05-15T07:01:00;42.80;;;29.37;;
3379;SDS011;1703;51.964;7.642;2023-05-15T07:03:27;47.00;;;34.00;;
3379;SDS011;1703;51.964;7.642;2023-05-15T07:05:56;46.90;;;31.43;;
3379;SDS011;1703;51.964;7.642;2023-05-15T07:08:22;42.80;;;32.00;;
3379;SDS011;1703;51.964;7.642;2023-05-15T07:10:49;47.17;;;33.73;;
3379;SDS011;1703;51.964;7.642;2023-05-15T07:13:16;55.27;;;35.53;;
3379;SDS011;1703;51.964;7.642;2023-05-15T07:15:43;49.83;;;33.83;;
3379;SDS011;1703;51.964;7.642;2023-05-15T07:18:10;44.40;;;31.37;;
3379;SDS011;1703;51.964;7.642;2023-05-15T07:20:37;41.73;;;30.93;;
3379;SDS011;1703;51.964;7.642;2023-05-15T07:23:05;51.83;;;32.00;;
3379;SDS011;1703;51.964;7.642;2023-05-15T07:25:32;46.20;;;33.30;;
3379;SDS011;1703;51.964;7.642;2023-05-15T07:27:59;42.83;;;30.67;;
3379;SDS011;1703;51.964;7.642;2023-05-15T07:30:25;45.57;;;32.23;;
3379;SDS011;1703;51.964;7.642;2023-05-15T07:32:52;48.40;;;32.93;;
3379;SDS011;1703;51.964;7.642;2023-05-15T07:35:19;46.53;;;30.43;;
3379;SDS011;1703;51.964;7.642;2023-05-15T07:37:46;45.33;;;29.03;;
3379;SDS011;1703;51.964;7.642;2023-05-15T07:40:14;41.70;;;29.53;;
3379;SDS011;1703;51.964;7.642;2023-05-15T07:42:42;44.50;;;30.80;;
3379;SDS011;1703;51.964;7.642;2023-05-15T07:45:09;43.90;;;29.23;;
3379;SDS011;1703;51.964;7.642;2023-05-15T07:47:36;40.90;;;29.50;;
3379;SDS011;1703;51.964;7.642;2023-05-15T07:50:03;40.30;;;30.60;;
3379;SDS011;1703;51.964;7.642;2023-05-15T07:52:30;41.73;;;30.20;;
3379;SDS011;1703;51.964;7.642;2023-05-15T07:54:57;40.20;;;28.47;;
3379;SDS011;1703;51.964;7.642;2023-05-15T07:57:25;39.70;;;28.00;;
3379;SDS011;1703;51.964;7.642;2023-05-15T07:59:52;37.77;;;28.23;;
3379;SDS011;1703;51.964;7.642;2023-05-15T08:02:18;43.13;;;30.73;;
3379;SDS011;1703;51.964;7.642;2023-05-15T08:04:45;39.30;;;28.87;;
3379;SDS011;1703;51.964;7.642;2023-05-15T08:07:12;46.30;;;30.63;;
3379;SDS011;1703;51.964;7.642;2023-05-15T08:09:39;37.93;;;28.97;;
3379;SDS011;1703;51.964;7.642;2023-05-15T08:12:15;41.97;;;29.67;;
3379;SDS011;1703;51.964;7.642;2023-05-15T08:14:46;37.40;;;26.93;;
3379;SDS011;1703;51.964;7.642;2023-05-15T08:17:14;39.63;;;28.70;;
3379;SDS011;1703;51.964;7.642;2023-05-15T08:19:41;38.10;;;28.60;;
3379;SDS011;1703;51.964;7.642;2023-05-15T08:22:08;31.47;;;23.60;;
3379;SDS011;1703;51.964;7.642;2023-05-15T08:24:35;35.13;;;27.10;;
3379;SDS011;1703;51.964;7.642;2023-05-15T08:27:03;39.80;;;28.63;;
3379;SDS011;1703;51.964;7.642;2023-05-15T08:29:30;36.50;;;27.73;;
3379;SDS011;1703;51.964;7.642;2023-05-15T08:31:59;36.97;;;26.93;;
3379;SDS011;1703;51.964;7.642;2023-05-15T08:34:26;39.17;;;29.03;;
3379;SDS011;1703;51.964;7.642;2023-05-15T08:36:53;33.90;;;24.60;;
3379;SDS011;1703;51.964;7.642;2023-05-15T08:39:20;36.43;;;25.90;;
3379;SDS011;1703;51.964;7.642;2023-05-15T08:41:50;35.40;;;25.90;;
3379;SDS011;1703;51.964;7.642;2023-05-15T08:44:18;40.23;;;27.10;;
3379;SDS011;1703;51.964;7.642;2023-05-15T08:46:46;38.50;;;28.00;;
3379;SDS011;1703;51.964;7.642;2023-05-15T08:49:16;35.70;;;26.80;;
3379;SDS011;1703;51.964;7.642;2023-05-15T08:51:47;41.70;;;27.47;;
3379;SDS011;1703;51.964;7.642;2023-05-15T08:54:14;42.23;;;30.00;;
3379;SDS011;1703;51.964;7.642;2023-05-15T08:56:41;43.00;;;29.43;;
3379;SDS011;1703;51.964;7.642;2023-05-15T08:59:08;43.30;;;29.60;;
3379;SDS011;1703;51.964;7.642;2023-05-15T09:01:35;43.63;;;28.97;;
3379;SDS011;1703;51.964;7.642;2023-05-15T09:04:03;42.33;;;28.70;;
3379;SDS011;1703;51.964;7.642;2023-05-15T09:06:32;50.10;;;30.10;;
3379;SDS011;1703;51.964;7.642;2023-05-15T09:08:59;38.37;;;27.80;;
3379;SDS011;1703;51.964;7.642;2023-05-15T09:11:28;42.40;;;28.27;;
3379;SDS011;1703;51.964;7.642;2023-05-15T09:13:56;36.10;;;25.93;;
3379;SDS011;1703;51.964;7.642;2023-05-15T09:16:23;38.00;;;27.57;;
3379;SDS011;1703;51.964;7.642;2023-05-15T09:18:50;39.70;;;27.00;;
3379;SDS011;1703;51.964;7.642;2023-05-15T09:21:20;32.93;;;25.17;;
3379;SDS011;1703;51.964;7.642;2023-05-15T09:23:50;37.10;;;26.90;;
3379;SDS011;1703;51.964;7.642;2023-05-15T09:26:17;39.30;;;28.60;;
3379;SDS011;1703;51.964;7.642;2023-05-15T09:28:43;38.57;;;28.57;;
3379;SDS011;1703;51.964;7.642;2023-05-15T09:31:11;37.73;;;27.60;;
3379;SDS011;1703;51.964;7.642;2023-05-15T09:33:38;33.30;;;26.67;;
3379;SDS011;1703;51.964;7.642;2023-05-15T09:36:06;34.17;;;25.33;;
3379;SDS011;1703;51.964;7.642;2023-05-15T09:38:34;39.20;;;27.80;;
3379;SDS011;1703;51.964;7.642;2023-05-15T09:41:07;36.23;;;25.90;;
3379;SDS011;1703;51.964;7.642;2023-05-15T09:43:36;31.87;;;23.63;;
3379;SDS011;1703;51.964;7.642;2023-05-15T09:46:05;38.30;;;28.97;;
3379;SDS011;1703;51.964;7.642;2023-05-15T09:48:33;34.60;;;24.87;;
3379;SDS011;1703;51.964;7.642;2023-05-15T09:51:00;35.70;;;25.67;;
3379;SDS011;1703;51.964;7.642;2023-05-15T09:53:29;38.00;;;27.93;;
3379;SDS011;1703;51.964;7.642;2023-05-15T09:55:58;33.53;;;24.43;;
3379;SDS011;1703;51.964;7.642;2023-05-15T09:58:26;37.40;;;26.17;;
3379;SDS011;1703;51.964;7.642;2023-05-15T10:00:53;35.00;;;28.10;;
3379;SDS011;1703;51.964;7.642;2023-05-15T10:03:24;39.37;;;28.20;;
3379;SDS011;1703;51.964;7.642;2023-05-15T10:05:51;35.07;;;26.63;;
3379;SDS011;1703;51.964;7.642;2023-05-15T10:08:25;35.87;;;26.40;;
3379;SDS011;1703;51.964;7.642;2023-05-15T10:10:53;32.60;;;25.10;;
3379;SDS011;1703;51.964;7.642;2023-05-15T10:13:23;37.37;;;26.93;;
3379;SDS011;1703;51.964;7.642;2023-05-15T10:15:53;31.63;;;25.57;;
3379;SDS011;1703;51.964;7.642;2023-05-15T10:18:21;35.43;;;26.87;;
3379;SDS011;1703;51.964;7.642;2023-05-15T10:20:53;38.90;;;26.27;;
3379;SDS011;1703;51.964;7.642;2023-05-15T10:23:22;30.33;;;24.70;;
3379;SDS011;1703;51.964;7.642;2023-05-15T10:25:49;32.33;;;26.30;;
3379;SDS011;1703;51.964;7.642;2023-05-15T10:28:20;29.07;;;24.30;;
3379;SDS011;1703;51.964;7.642;2023-05-15T10:30:48;34.73;;;27.30;;
3379;SDS011;1703;51.964;7.642;2023-05-15T10:33:17;36.73;;;28.47;;
3379;SDS011;1703;51.964;7.642;2023-05-15T10:35:45;32.00;;;24.83;;
3379;SDS011;1703;51.964;7.642;2023-05-15T10:38:14;37.23;;;24.40;;
3379;SDS011;1703;51.964;7.642;2023-05-15T10:40:42;31.03;;;25.00;;
3379;SDS011;1703;51.964;7.642;2023-05-15T10:43:10;32.00;;;25.37;;
3379;SDS011;1703;51.964;7.642;2023-05-15T10:45:39;32.70;;;24.97;;
3379;SDS011;1703;51.964;7.642;2023-05-15T10:48:07;28.03;;;23.70;;
3379;SDS011;1703;51.964;7.642;2023-05-15T10:50:37;29.03;;;24.00;;
3379;SDS011;1703;51.964;7.642;2023-05-15T10:53:04;27.83;;;24.00;;
3379;SDS011;1703;51.964;7.642;2023-05-15T10:55:31;28.63;;;24.50;;
3379;SDS011;1703;51.964;7.642;2023-05-15T10:57:58;29.37;;;24.27;;
3379;SDS011;1703;51.964;7.642;2023-05-15T11:00:25;30.53;;;24.80;;
3379;SDS011;1703;51.964;7.642;2023-05-15T11:02:53;26.77;;;22.70;;
3379;SDS011;1703;51.964;7.642;2023-05-15T11:05:22;30.33;;;22.77;;
3379;SDS011;1703;51.964;7.642;2023-05-15T11:10:51;29.20;;;23.40;;
3379;SDS011;1703;51.964;7.642;2023-05-15T11:13:18;29.90;;;24.63;;
3379;SDS011;1703;51.964;7.642;2023-05-15T11:15:46;31.00;;;22.50;;
3379;SDS011;1703;51.964;7.642;2023-05-15T11:18:13;28.73;;;24.70;;
3379;SDS011;1703;51.964;7.642;2023-05-15T11:20:40;27.37;;;23.07;;
3379;SDS011;1703;51.964;7.642;2023-05-15T11:23:29;29.77;;;23.30;;
3379;SDS011;1703;51.964;7.642;2023-05-15T11:26:04;28.90;;;23.23;;
3379;SDS011;1703;51.964;7.642;2023-05-15T11:28:30;26.60;;;21.40;;
3379;SDS011;1703;51.964;7.642;2023-05-15T11:31:07;25.93;;;21.57;;
3379;SDS011;1703;51.964;7.642;2023-05-15T11:33:36;25.27;;;19.53;;
3379;SDS011;1703;51.964;7.642;2023-05-15T11:36:04;24.13;;;20.30;;
3379;SDS011;1703;51.964;7.642;2023-05-15T11:38:36;22.67;;;19.47;;
3379;SDS011;1703;51.964;7.642;2023-05-15T11:41:15;25.73;;;20.70;;
3379;SDS011;1703;51.964;7.642;2023-05-15T11:43:46;23.57;;;19.30;;
3379;SDS011;1703;51.964;7.642;2023-05-15T11:46:13;24.50;;;19.00;;
3379;SDS011;1703;51.964;7.642;2023-05-15T11:48:41;26.93;;;19.83;;
3379;SDS011;1703;51.964;7.642;2023-05-15T11:51:12;23.33;;;19.10;;
3379;SDS011;1703;51.964;7.642;2023-05-15T11:53:44;21.57;;;18.13;;
3379;SDS011;1703;51.964;7.642;2023-05-15T11:56:17;21.43;;;19.00;;
3379;SDS011;1703;51.964;7.642;2023-05-15T11:58:46;24.67;;;20.23;;
3379;SDS011;1703;51.964;7.642;2023-05-15T12:01:14;28.30;;;20.77;;
3379;SDS011;1703;51.964;7.642;2023-05-15T12:03:41;26.07;;;22.03;;
3379;SDS011;1703;51.964;7.642;2023-05-15T12:06:08;24.43;;;20.60;;
3379;SDS011;1703;51.964;7.642;2023-05-15T12:08:36;27.53;;;21.37;;
3379;SDS011;1703;51.964;7.642;2023-05-15T12:11:04;22.20;;;19.30;;
3379;SDS011;1703;51.964;7.642;2023-05-15T12:13:31;20.50;;;18.00;;
3379;SDS011;1703;51.964;7.642;2023-05-15T12:15:59;21.13;;;17.90;;
3379;SDS011;1703;51.964;7.642;2023-05-15T12:18:27;20.10;;;18.00;;
3379;SDS011;1703;51.964;7.642;2023-05-15T12:20:55;20.43;;;18.30;;
3379;SDS011;1703;51.964;7.642;2023-05-15T12:23:22;21.43;;;16.37;;
3379;SDS011;1703;51.964;7.642;2023-05-15T12:25:51;17.37;;;15.57;;
3379;SDS011;1703;51.964;7.642;2023-05-15T12:28:24;25.03;;;16.27;;
3379;SDS011;1703;51.964;7.642;2023-05-15T12:30:51;21.30;;;15.07;;
3379;SDS011;1703;51.964;7.642;2023-05-15T12:33:19;25.10;;;16.00;;
3379;SDS011;1703;51.964;7.642;2023-05-15T12:35:48;17.30;;;14.10;;
3379;SDS011;1703;51.964;7.642;2023-05-15T12:38:17;18.33;;;14.33;;
3379;SDS011;1703;51.964;7.642;2023-05-15T12:40:43;16.20;;;13.10;;
3379;SDS011;1703;51.964;7.642;2023-05-15T12:43:11;15.17;;;12.87;;
3379;SDS011;1703;51.964;7.642;2023-05-15T12:45:40;16.33;;;14.67;;
3379;SDS011;1703;51.964;7.642;2023-05-15T12:48:11;14.73;;;13.10;;
3379;SDS011;1703;51.964;7.642;2023-05-15T12:50:39;15.13;;;11.00;;
3379;SDS011;1703;51.964;7.642;2023-05-15T12:53:09;12.90;;;10.87;;
3379;SDS011;1703;51.964;7.642;2023-05-15T12:55:38;11.67;;;10.60;;
3379;SDS011;1703;51.964;7.642;2023-05-15T12:58:06;15.43;;;9.83;;
3379;SDS011;1703;51.964;7.642;2023-05-15T13:00:34;13.80;;;11.30;;
3379;SDS011;1703;51.964;7.642;2023-05-15T13:03:04;13.53;;;10.07;;
3379;SDS011;1703;51.964;7.642;2023-05-15T13:05:34;10.40;;;9.30;;
3379;SDS011;1703;51.964;7.642;2023-05-15T13:08:02;14.30;;;11.10;;
3379;SDS011;1703;51.964;7.642;2023-05-15T13:10:31;15.10;;;9.43;;
3379;SDS011;1703;51.964;7.642;2023-05-15T13:12:59;13.50;;;10.63;;
3379;SDS011;1703;51.964;7.642;2023-05-15T13:15:28;15.77;;;10.60;;
3379;SDS011;1703;51.964;7.642;2023-05-15T13:17:58;8.40;;;7.57;;
3379;SDS011;1703;51.964;7.642;2023-05-15T13:20:27;8.23;;;7.43;;
3379;SDS011;1703;51.964;7.642;2023-05-15T13:22:57;9.30;;;7.30;;
3379;SDS011;1703;51.964;7.642;2023-05-15T13:25:23;8.27;;;6.60;;
3379;SDS011;1703;51.964;7.642;2023-05-15T13:27:50;7.50;;;6.90;;
3379;SDS011;1703;51.964;7.642;2023-05-15T13:30:17;12.93;;;7.10;;
3379;SDS011;1703;51.964;7.642;2023-05-15T13:32:44;12.93;;;8.20;;
3379;SDS011;1703;51.964;7.642;2023-05-15T13:35:11;7.20;;;6.50;;
3379;SDS011;1703;51.964;7.642;2023-05-15T13:37:39;12.90;;;6.67;;
3379;SDS011;1703;51.964;7.642;2023-05-15T13:40:08;7.77;;;7.07;;
3379;SDS011;1703;51.964;7.642;2023-05-15T13:42:36;7.50;;;5.80;;
3379;SDS011;1703;51.964;7.642;2023-05-15T13:45:03;10.57;;;6.67;;
3379;SDS011;1703;51.964;7.642;2023-05-15T13:47:31;7.20;;;5.80;;
3379;SDS011;1703;51.964;7.642;2023-05-15T13:49:58;7.97;;;5.30;;
3379;SDS011;1703;51.964;7.642;2023-05-15T13:52:25;11.37;;;6.50;;
3379;SDS011;1703;51.964;7.642;2023-05-15T13:54:53;9.53;;;5.80;;
3379;SDS011;1703;51.964;7.642;2023-05-15T13:57:20;6.13;;;5.70;;
3379;SDS011;1703;51.964;7.642;2023-05-15T13:59:47;5.90;;;5.50;;
3379;SDS011;1703;51.964;7.642;2023-05-15T14:02:15;6.30;;;5.60;;
3379;SDS011;1703;51.964;7.642;2023-05-15T14:04:42;6.17;;;5.43;;
3379;SDS011;1703;51.964;7.642;2023-05-15T14:07:09;6.40;;;5.90;;
3379;SDS011;1703;51.964;7.642;2023-05-15T14:09:35;5.27;;;4.77;;
3379;SDS011;1703;51.964;7.642;2023-05-15T14:12:04;6.30;;;5.70;;
3379;SDS011;1703;51.964;7.642;2023-05-15T14:14:30;9.67;;;6.23;;
3379;SDS011;1703;51.964;7.642;2023-05-15T14:16:57;4.73;;;4.10;;
3379;SDS011;1703;51.964;7.642;2023-05-15T14:19:24;6.80;;;5.93;;
3379;SDS011;1703;51.964;7.642;2023-05-15T14:21:51;12.77;;;6.10;;
3379;SDS011;1703;51.964;7.642;2023-05-15T14:24:18;6.10;;;5.57;;
3379;SDS011;1703;51.964;7.642;2023-05-15T14:26:44;11.03;;;6.30;;
3379;SDS011;1703;51.964;7.642;2023-05-15T14:29:13;10.77;;;5.77;;
3379;SDS011;1703;51.964;7.642;2023-05-15T14:31:40;6.67;;;5.80;;
3379;SDS011;1703;51.964;7.642;2023-05-15T14:34:07;9.77;;;6.00;;
3379;SDS011;1703;51.964;7.642;2023-05-15T14:36:34;6.53;;;5.90;;
3379;SDS011;1703;51.964;7.642;2023-05-15T14:39:00;6.17;;;5.60;;
3379;SDS011;1703;51.964;7.642;2023-05-15T14:41:28;7.80;;;5.20;;
3379;SDS011;1703;51.964;7.642;2023-05-15T14:43:54;7.90;;;5.10;;
3379;SDS011;1703;51.964;7.642;2023-05-15T14:46:23;5.67;;;5.03;;
3379;SDS011;1703;51.964;7.642;2023-05-15T14:48:49;6.50;;;5.70;;
3379;SDS011;1703;51.964;7.642;2023-05-15T14:51:16;7.17;;;5.43;;
3379;SDS011;1703;51.964;7.642;2023-05-15T14:53:43;5.93;;;5.33;;
3379;SDS011;1703;51.964;7.642;2023-05-15T14:56:10;9.30;;;5.43;;
3379;SDS011;1703;51.964;7.642;2023-05-15T14:58:36;7.93;;;6.10;;
3379;SDS011;1703;51.964;7.642;2023-05-15T15:01:03;8.87;;;6.60;;
3379;SDS011;1703;51.964;7.642;2023-05-15T15:03:31;7.40;;;6.37;;